»·PEaware :: N1955 KSMX-KBFL

N1955 :: KSMX-KBFL

FLIGHT INFORMATION

Flight Status: Arrived
Operator: Privately registered:
United States
More flights under this callsign
Pilot: Ross W. (20449)
Aircraft: BEECH AIRCRAFT BARON
(BE58)
More flights by this aircraft type
Origin: KSMX Santa Maria Pub/Capt Hancock
United States
Destination: KBFL Meadows
United States
More flights between these airports :: More routes between these airports
Route: +FLW
File this flight plan on PilotEdge
Remarks: Student IFR Pilot
Altitude:
(Current/Filed)
9,000ft
Speed:
(Current/Filed)
165kts
Departed: 27-Sep-18 11:08 AM
Arrived: 27-Sep-18 11:44 AM
Distance/Time
Traveled:
76nm/0:36
Distance/Time
To Go:
Arrived

Flight Plot

Page will automatically refresh every two minutes.


Map Options




Map Legend


Flown Route
Filed Route
Departure Airport
Arrival Airport
Navaid (VOR, NDB)
Fix

Horizontal Profiles

Position Reports

Time Latitude Longitude Heading Altitude Ground
Speed
27-Sep-18 10:56 34.899557 -120.450157 88 264ft 0kts
27-Sep-18 10:57 34.899557 -120.450157 88 264ft 0kts
27-Sep-18 10:58 34.899557 -120.450157 88 264ft 0kts
27-Sep-18 10:59 34.899557 -120.450157 88 264ft 0kts
27-Sep-18 11:00 34.899557 -120.450157 88 264ft 0kts
27-Sep-18 11:01 34.899557 -120.450157 88 264ft 0kts
27-Sep-18 11:02 34.899557 -120.450157 88 264ft 0kts
27-Sep-18 11:03 34.899557 -120.450157 88 264ft 0kts
27-Sep-18 11:04 34.899557 -120.450157 88 264ft 0kts
27-Sep-18 11:05 34.899557 -120.450157 88 264ft 0kts
27-Sep-18 11:06 34.897905 -120.449406 135 264ft 14kts
27-Sep-18 11:07 34.894572 -120.445424 135 264ft 12kts
27-Sep-18 11:08 34.893253 -120.444949 181 264ft 0kts
27-Sep-18 11:09 34.893246 -120.444949 181 264ft 1kts
27-Sep-18 11:10 34.904455 -120.459377 320 612ft 102kts
27-Sep-18 11:11 34.922219 -120.445426 110 1442ft 120kts
27-Sep-18 11:12 34.910106 -120.412630 114 2495ft 126kts
27-Sep-18 11:13 34.894228 -120.372994 124 3680ft 135kts
27-Sep-18 11:14 34.877631 -120.332655 113 4895ft 132kts
27-Sep-18 11:15 34.864006 -120.290752 108 6006ft 131kts
27-Sep-18 11:16 34.851261 -120.248239 107 7120ft 137kts
27-Sep-18 11:17 34.837756 -120.205533 112 8037ft 149kts
27-Sep-18 11:18 34.821959 -120.154754 111 8138ft 166kts
27-Sep-18 11:19 34.821726 -120.101072 46 8236ft 166kts
27-Sep-18 11:20 34.863256 -120.072390 38 8392ft 159kts
27-Sep-18 11:21 34.894407 -120.039826 37 8979ft 151kts
27-Sep-18 11:22 34.924081 -120.013725 41 9032ft 165kts
27-Sep-18 11:23 34.968624 -119.975965 29 9229ft 170kts
27-Sep-18 11:24 35.002428 -119.949757 35 9250ft 172kts
27-Sep-18 11:25 35.047121 -119.907944 36 9212ft 177kts
27-Sep-18 11:26 35.086831 -119.873080 34 9203ft 177kts
27-Sep-18 11:27 35.114988 -119.839221 60 9175ft 172kts
27-Sep-18 11:28 35.135178 -119.774886 65 9045ft 175kts
27-Sep-18 11:29 35.154601 -119.730685 62 8952ft 175kts
27-Sep-18 11:30 35.185371 -119.671606 58 7579ft 177kts
27-Sep-18 11:31 35.208945 -119.633157 53 7451ft 171kts
27-Sep-18 11:32 35.227066 -119.578278 74 7438ft 179kts
27-Sep-18 11:33 35.241832 -119.520569 73 7421ft 173kts
27-Sep-18 11:34 35.267200 -119.469938 56 6442ft 177kts
27-Sep-18 11:35 35.293657 -119.420064 62 5597ft 173kts
27-Sep-18 11:36 35.317935 -119.358646 67 4655ft 171kts
27-Sep-18 11:37 35.336839 -119.316526 60 4027ft 170kts
27-Sep-18 11:38 35.362185 -119.267786 63 3373ft 167kts
27-Sep-18 11:39 35.385504 -119.219988 54 2814ft 160kts
27-Sep-18 11:40 35.413387 -119.182773 31 2785ft 152kts
27-Sep-18 11:41 35.433976 -119.150492 122 2991ft 151kts
27-Sep-18 11:42 35.408823 -119.106127 127 2629ft 159kts
27-Sep-18 11:43 35.386179 -119.061083 93 2132ft 140kts
27-Sep-18 11:44 35.410750 -119.030748 348 1151ft 135kts
27-Sep-18 11:45 35.435356 -119.058027 316 488ft 95kts
27-Sep-18 11:46 35.438216 -119.059873 81 495ft 0kts
27-Sep-18 11:47 35.437097 -119.057925 137 494ft 22kts
27-Sep-18 11:48 35.435270 -119.053754 10 498ft 11kts
27-Sep-18 11:49 35.435327 -119.053851 137 498ft 0kts
27-Sep-18 11:50 35.435327 -119.053851 137 498ft 0kts
27-Sep-18 11:51 35.435327 -119.053851 137 498ft 0kts
27-Sep-18 11:52 35.435327 -119.053851 137 498ft 0kts
27-Sep-18 11:53 35.435327 -119.053851 137 498ft 0kts
27-Sep-18 11:54 35.435327 -119.053851 137 498ft 0kts
27-Sep-18 11:55 35.435327 -119.053851 137 498ft 0kts
27-Sep-18 11:56 35.435327 -119.053851 137 498ft 0kts
27-Sep-18 11:57 35.435327 -119.053851 137 498ft 0kts
27-Sep-18 11:58 35.435327 -119.053851 137 498ft 0kts
27-Sep-18 11:59 35.435327 -119.053851 137 498ft 0kts

Navigation Log

Ident Type
1. KSMX Airport
2. FLW Navaid
3. KBFL Airport